Time;durP1;ratioP1;P1;durP2;ratioP2;P2;SDS_P1;SDS_P2;PMS_P1;PMS_P2;Temp;Humidity;BMP_temperature;BMP_pressure;BME280_temperature;BME280_humidity;BME280_pressure;Samples;Min_cycle;Max_cycle;Signal;HPM_P1;HPM_P2
2024/01/01 00:01:24;;;;;;;39.42;22.10;;;8.30;99.90;;;;;;5058627;28;20079;-50
2024/01/01 00:03:50;;;;;;;38.47;22.33;;;8.30;99.90;;;;;;5056564;28;20136;-50
2024/01/01 00:06:16;;;;;;;40.80;25.48;;;8.30;99.90;;;;;;5059188;28;20044;-53
2024/01/01 00:08:41;;;;;;;45.22;28.75;;;8.30;99.90;;;;;;5056098;28;20044;-51
2024/01/01 00:11:07;;;;;;;43.78;28.95;;;8.20;99.90;;;;;;5059562;28;20238;-51
2024/01/01 00:13:33;;;;;;;43.17;29.35;;;8.20;99.90;;;;;;5058839;28;20044;-53
2024/01/01 00:15:59;;;;;;;48.33;28.15;;;8.20;99.90;;;;;;5055038;28;20487;-53
2024/01/01 00:18:24;;;;;;;43.78;26.70;;;8.20;99.90;;;;;;5055899;28;20043;-53
2024/01/01 00:20:50;;;;;;;40.90;26.20;;;8.20;99.90;;;;;;5058034;28;20033;-51
2024/01/01 00:23:16;;;;;;;39.03;24.98;;;8.20;99.90;;;;;;5058780;28;20020;-54
2024/01/01 00:25:42;;;;;;;39.38;23.35;;;8.20;99.90;;;;;;5044448;28;20063;-53
2024/01/01 00:28:07;;;;;;;42.05;23.13;;;8.20;99.90;;;;;;5057829;28;20460;-50
2024/01/01 00:30:34;;;;;;;39.28;22.73;;;8.20;99.90;;;;;;5060171;28;20041;-53
2024/01/01 00:32:59;;;;;;;40.03;23.52;;;8.10;99.90;;;;;;5059475;28;20143;-54
2024/01/01 00:35:25;;;;;;;36.75;22.45;;;8.20;99.90;;;;;;5055904;28;20376;-50
2024/01/01 00:37:51;;;;;;;41.47;22.92;;;8.20;99.90;;;;;;5058162;28;20556;-52
2024/01/01 00:40:16;;;;;;;34.88;23.58;;;8.20;99.90;;;;;;5056726;28;20040;-51
2024/01/01 00:42:43;;;;;;;34.47;22.73;;;8.20;99.90;;;;;;5054635;28;20498;-53
2024/01/01 00:45:09;;;;;;;38.78;25.67;;;8.20;99.90;;;;;;5057539;28;20041;-53
2024/01/01 00:47:35;;;;;;;43.00;23.98;;;8.10;99.90;;;;;;5059939;28;20043;-53
2024/01/01 00:50:03;;;;;;;38.22;23.95;;;8.20;99.90;;;;;;5058826;28;20029;-50
2024/01/01 00:52:29;;;;;;;46.00;25.85;;;8.10;99.90;;;;;;5055514;28;20155;-54
2024/01/01 00:54:55;;;;;;;42.58;26.05;;;8.20;99.90;;;;;;5061155;28;21014;-53
2024/01/01 00:57:21;;;;;;;44.70;26.90;;;8.20;99.90;;;;;;5057547;28;20040;-52
2024/01/01 00:59:47;;;;;;;48.15;28.27;;;8.20;99.90;;;;;;5061345;28;20029;-53
2024/01/01 01:02:12;;;;;;;46.05;27.90;;;8.20;99.90;;;;;;5055352;28;20039;-50
2024/01/01 01:04:38;;;;;;;44.83;27.13;;;8.20;99.90;;;;;;5060609;28;20044;-52
2024/01/01 01:07:05;;;;;;;47.83;28.38;;;8.20;99.90;;;;;;5040064;28;20320;-52
2024/01/01 01:09:31;;;;;;;43.35;26.13;;;8.20;99.90;;;;;;5060560;28;20514;-48
2024/01/01 01:11:57;;;;;;;42.50;25.98;;;8.20;99.90;;;;;;5058324;28;20082;-50
2024/01/01 01:14:22;;;;;;;41.45;25.52;;;8.20;99.90;;;;;;5059115;28;20036;-47
2024/01/01 01:16:48;;;;;;;40.55;25.85;;;8.20;99.90;;;;;;5060651;28;20128;-50
2024/01/01 01:19:14;;;;;;;46.00;25.17;;;8.20;99.90;;;;;;5057704;28;20140;-52
2024/01/01 01:21:40;;;;;;;46.10;24.10;;;8.20;99.90;;;;;;5061328;28;20036;-52
2024/01/01 01:24:05;;;;;;;40.15;24.63;;;8.20;99.90;;;;;;5063555;28;20127;-50
2024/01/01 01:26:31;;;;;;;41.20;24.95;;;8.20;99.90;;;;;;5062452;28;20046;-49
2024/01/01 01:28:57;;;;;;;43.70;25.77;;;8.20;99.90;;;;;;5063874;28;20387;-50
2024/01/01 01:31:23;;;;;;;40.15;24.00;;;8.20;99.90;;;;;;5061865;28;20067;-47
2024/01/01 01:33:51;;;;;;;40.17;23.92;;;8.30;99.90;;;;;;5047042;28;20044;-51
2024/01/01 01:36:16;;;;;;;31.98;22.63;;;8.30;99.90;;;;;;5059586;28;20188;-48
2024/01/01 01:38:42;;;;;;;39.83;23.52;;;8.40;99.90;;;;;;5046184;28;20440;-49
2024/01/01 01:41:08;;;;;;;41.78;23.88;;;8.40;99.90;;;;;;5063801;28;20033;-48
2024/01/01 01:43:34;;;;;;;41.92;24.27;;;8.50;99.90;;;;;;5063599;28;20509;-50
2024/01/01 01:46:00;;;;;;;42.20;24.65;;;8.50;99.90;;;;;;5060366;28;20402;-50
2024/01/01 01:48:27;;;;;;;40.58;24.20;;;8.40;99.90;;;;;;5054971;28;20048;-50
2024/01/01 01:50:55;;;;;;;41.53;24.75;;;8.40;99.90;;;;;;5062468;28;20316;-49
2024/01/01 01:53:23;;;;;;;38.63;24.65;;;8.50;99.90;;;;;;5063451;28;20040;-52
2024/01/01 01:55:52;;;;;;;40.58;26.83;;;8.50;99.90;;;;;;5062740;28;20123;-50
2024/01/01 01:58:18;;;;;;;36.28;24.05;;;8.50;99.90;;;;;;5054323;28;20075;-50
2024/01/01 02:00:47;;;;;;;34.60;24.00;;;8.50;99.90;;;;;;5055697;28;20064;-53
2024/01/01 02:03:14;;;;;;;36.13;24.45;;;8.50;99.90;;;;;;5062632;28;20139;-53
2024/01/01 02:05:40;;;;;;;35.83;23.65;;;8.50;99.90;;;;;;5059857;28;20538;-50
2024/01/01 02:08:06;;;;;;;40.08;21.70;;;8.50;99.90;;;;;;5060317;28;20044;-50
2024/01/01 02:10:32;;;;;;;30.98;20.08;;;8.50;99.90;;;;;;5060912;28;20047;-51
2024/01/01 02:12:59;;;;;;;33.85;21.05;;;8.50;99.90;;;;;;5063243;28;20040;-51
2024/01/01 02:15:25;;;;;;;37.13;21.15;;;8.50;99.90;;;;;;5059153;28;20064;-51
2024/01/01 02:17:51;;;;;;;31.35;19.52;;;8.50;99.90;;;;;;5061998;28;20571;-50
2024/01/01 02:20:17;;;;;;;37.28;19.95;;;8.60;99.90;;;;;;5061270;28;20040;-52
2024/01/01 02:22:43;;;;;;;32.40;21.02;;;8.60;99.90;;;;;;5060768;28;20043;-53
2024/01/01 02:25:09;;;;;;;32.38;19.20;;;8.60;99.90;;;;;;5053978;28;20040;-51
2024/01/01 02:27:41;;;;;;;34.25;19.27;;;8.50;99.90;;;;;;5056823;28;20033;-51
2024/01/01 02:30:10;;;;;;;30.92;21.00;;;8.60;99.90;;;;;;5061025;28;20059;-53
2024/01/01 02:32:39;;;;;;;;;;;8.60;99.90;;;;;;5062843;28;20051;-50
2024/01/01 02:35:08;;;;;;;32.38;20.92;;;8.50;99.90;;;;;;5061939;28;20374;-51
2024/01/01 02:37:34;;;;;;;;;;;8.60;99.90;;;;;;5060947;28;20045;-53
2024/01/01 02:40:01;;;;;;;28.38;20.10;;;8.60;99.90;;;;;;5062547;28;19921;-50
2024/01/01 02:42:27;;;;;;;29.48;19.95;;;8.60;99.90;;;;;;5040999;28;20102;-53
2024/01/01 02:44:53;;;;;;;29.83;20.15;;;8.60;99.90;;;;;;5058038;28;20155;-51
2024/01/01 02:47:19;;;;;;;31.75;19.55;;;8.50;99.90;;;;;;5058377;28;20143;-50
2024/01/01 02:49:44;;;;;;;33.30;20.88;;;8.50;99.90;;;;;;5060319;28;20501;-52
2024/01/01 02:52:10;;;;;;;32.70;21.05;;;8.40;99.90;;;;;;5057999;28;20947;-52
2024/01/01 02:54:36;;;;;;;33.22;21.58;;;8.40;99.90;;;;;;5060230;28;20450;-53
2024/01/01 02:57:02;;;;;;;37.10;22.02;;;8.30;99.90;;;;;;5058886;28;20490;-53
2024/01/01 02:59:28;;;;;;;29.95;18.25;;;8.20;99.90;;;;;;5062651;28;20032;-54
2024/01/01 03:01:54;;;;;;;23.90;16.52;;;8.20;99.90;;;;;;5058861;28;20508;-53
2024/01/01 03:04:19;;;;;;;23.85;16.60;;;8.10;99.90;;;;;;5043473;28;20280;-53
2024/01/01 03:06:45;;;;;;;29.63;16.92;;;8.10;99.90;;;;;;5059312;28;20048;-53
2024/01/01 03:09:11;;;;;;;25.08;16.63;;;8.10;99.90;;;;;;5060543;28;20047;-53
2024/01/01 03:11:37;;;;;;;26.80;15.85;;;8.00;99.90;;;;;;5061056;28;20041;-50
2024/01/01 03:14:02;;;;;;;21.23;13.00;;;8.00;99.90;;;;;;5058443;28;20112;-53
2024/01/01 03:16:28;;;;;;;20.63;12.73;;;7.90;99.90;;;;;;5060669;28;20063;-51
2024/01/01 03:18:54;;;;;;;18.17;12.48;;;7.90;99.90;;;;;;5059618;28;20557;-52
2024/01/01 03:21:20;;;;;;;21.27;11.60;;;7.90;99.90;;;;;;5047313;28;20036;-51
2024/01/01 03:23:46;;;;;;;19.17;12.35;;;7.90;99.90;;;;;;5057489;28;20033;-52
2024/01/01 03:26:12;;;;;;;22.10;11.20;;;7.90;99.90;;;;;;5041412;28;20091;-54
2024/01/01 03:28:37;;;;;;;20.98;11.52;;;7.80;99.90;;;;;;5057158;28;20055;-51
2024/01/01 03:31:04;;;;;;;23.70;11.52;;;7.80;99.90;;;;;;5060280;28;20048;-54
2024/01/01 03:33:34;;;;;;;18.77;11.15;;;7.80;99.90;;;;;;5062125;28;20048;-53
2024/01/01 03:35:59;;;;;;;18.52;11.05;;;7.80;99.90;;;;;;5053220;28;20044;-51
2024/01/01 03:38:25;;;;;;;22.45;11.05;;;7.80;99.90;;;;;;5054335;28;20044;-49
2024/01/01 03:40:51;;;;;;;20.52;10.52;;;7.80;99.90;;;;;;5052611;28;20097;-56
2024/01/01 03:43:17;;;;;;;20.33;10.50;;;7.80;99.90;;;;;;5056581;28;20048;-53
2024/01/01 03:45:42;;;;;;;20.15;10.13;;;7.80;99.90;;;;;;5060725;28;20517;-50
2024/01/01 03:48:08;;;;;;;19.13;10.15;;;7.80;99.90;;;;;;5060726;28;20067;-54
2024/01/01 03:50:34;;;;;;;18.98;8.98;;;7.80;99.90;;;;;;5056220;28;20037;-53
2024/01/01 03:53:00;;;;;;;17.20;7.85;;;7.80;99.90;;;;;;5055545;28;20594;-50
2024/01/01 03:55:26;;;;;;;15.82;7.90;;;7.70;99.90;;;;;;5058302;28;20048;-54
2024/01/01 03:57:52;;;;;;;19.48;9.25;;;7.70;99.90;;;;;;5054748;28;20039;-53
2024/01/01 04:00:18;;;;;;;15.45;8.48;;;7.80;99.90;;;;;;5054863;28;20047;-53
2024/01/01 04:02:46;;;;;;;12.65;6.65;;;7.80;99.90;;;;;;5057254;28;20041;-53
2024/01/01 04:05:13;;;;;;;14.02;6.43;;;7.70;99.90;;;;;;5062433;28;20112;-50
2024/01/01 04:07:39;;;;;;;12.63;6.47;;;7.80;99.90;;;;;;5056786;28;20048;-53
2024/01/01 04:10:06;;;;;;;9.82;5.70;;;7.70;99.90;;;;;;5058535;28;20146;-50
2024/01/01 04:12:32;;;;;;;16.60;6.22;;;7.80;99.90;;;;;;5059123;28;20165;-54
2024/01/01 04:14:58;;;;;;;18.25;6.00;;;7.80;99.90;;;;;;5056116;28;20229;-52
2024/01/01 04:17:24;;;;;;;12.55;5.60;;;7.70;99.90;;;;;;5059375;28;20678;-52
2024/01/01 04:19:49;;;;;;;12.57;5.18;;;7.70;99.90;;;;;;5059559;28;20098;-53
2024/01/01 04:22:16;;;;;;;13.00;5.20;;;7.70;99.90;;;;;;5054151;28;20083;-53
2024/01/01 04:24:43;;;;;;;14.40;4.88;;;7.60;99.90;;;;;;5060013;28;20074;-53
2024/01/01 04:27:09;;;;;;;8.90;4.85;;;7.70;99.90;;;;;;5042293;28;20044;-54
2024/01/01 04:29:34;;;;;;;6.70;3.75;;;7.60;99.90;;;;;;5060920;28;20045;-53
2024/01/01 04:32:00;;;;;;;14.23;4.30;;;7.60;99.90;;;;;;5058963;28;20879;-54
2024/01/01 04:34:26;;;;;;;7.50;3.88;;;7.70;99.90;;;;;;5060497;28;20037;-54
2024/01/01 04:36:52;;;;;;;12.43;4.30;;;7.60;99.90;;;;;;5058283;28;20528;-54
2024/01/01 04:39:17;;;;;;;10.93;4.05;;;7.60;99.90;;;;;;5059280;28;20205;-53
2024/01/01 04:41:43;;;;;;;13.32;3.80;;;7.60;99.90;;;;;;5060394;28;20040;-54
2024/01/01 04:44:09;;;;;;;7.93;3.30;;;7.60;99.90;;;;;;5056164;28;20339;-53
2024/01/01 04:46:34;;;;;;;10.45;3.28;;;7.60;99.90;;;;;;5058347;28;20040;-53
2024/01/01 04:49:00;;;;;;;9.23;3.08;;;7.60;99.90;;;;;;5061507;28;20514;-51
2024/01/01 04:51:26;;;;;;;10.05;3.30;;;7.60;99.90;;;;;;5055432;28;20083;-53
2024/01/01 04:53:52;;;;;;;9.48;3.60;;;7.60;99.90;;;;;;5058551;28;20036;-52
2024/01/01 04:56:19;;;;;;;9.35;3.47;;;7.50;99.90;;;;;;5061968;28;20037;-52
2024/01/01 04:58:45;;;;;;;6.05;2.30;;;7.50;99.90;;;;;;5057624;28;20487;-51
2024/01/01 05:01:10;;;;;;;11.32;2.90;;;7.50;99.90;;;;;;5060561;28;20037;-51
2024/01/01 05:03:36;;;;;;;8.60;2.67;;;7.60;99.90;;;;;;5064308;28;20047;-51
2024/01/01 05:06:02;;;;;;;5.88;2.40;;;7.60;99.90;;;;;;5058624;28;20041;-54
2024/01/01 05:08:28;;;;;;;8.93;3.25;;;7.60;99.90;;;;;;5063954;28;20060;-50
2024/01/01 05:10:53;;;;;;;9.82;3.05;;;7.60;99.90;;;;;;5057494;28;20044;-54
2024/01/01 05:13:19;;;;;;;8.35;3.45;;;7.60;99.90;;;;;;5062484;28;20044;-53
2024/01/01 05:15:45;;;;;;;9.88;3.10;;;7.50;99.90;;;;;;5063774;28;20044;-51
2024/01/01 05:18:10;;;;;;;9.73;2.92;;;7.50;99.90;;;;;;5062418;28;20094;-47
2024/01/01 05:20:36;;;;;;;8.10;2.80;;;7.60;99.90;;;;;;5060079;28;20072;-51
2024/01/01 05:23:02;;;;;;;11.40;3.20;;;7.60;99.90;;;;;;5057446;28;20064;-51
2024/01/01 05:25:28;;;;;;;6.97;2.72;;;7.60;99.90;;;;;;5060590;28;20368;-53
2024/01/01 05:27:53;;;;;;;9.70;2.92;;;7.60;99.90;;;;;;5059646;28;20499;-52
2024/01/01 05:30:19;;;;;;;10.32;3.05;;;7.60;99.90;;;;;;5058757;28;20044;-54
2024/01/01 05:32:45;;;;;;;9.90;2.60;;;7.60;99.90;;;;;;5061547;28;20032;-53
2024/01/01 05:35:10;;;;;;;8.27;2.72;;;7.60;99.90;;;;;;5059822;28;20044;-52
2024/01/01 05:37:36;;;;;;;9.80;3.20;;;7.60;99.90;;;;;;5057862;28;20075;-50
2024/01/01 05:40:03;;;;;;;9.77;3.00;;;7.50;99.90;;;;;;5064064;28;20036;-50
2024/01/01 05:42:31;;;;;;;10.07;3.00;;;7.60;99.90;;;;;;5057586;28;20063;-58
2024/01/01 05:44:57;;;;;;;14.93;4.40;;;7.60;99.90;;;;;;5061578;28;20538;-53
2024/01/01 05:47:23;;;;;;;11.50;2.53;;;7.60;99.90;;;;;;5061122;28;20066;-51
2024/01/01 05:49:49;;;;;;;13.07;3.20;;;7.60;99.90;;;;;;5057194;28;20521;-54
2024/01/01 05:52:17;;;;;;;8.52;2.40;;;7.60;99.90;;;;;;5055635;28;20041;-54
2024/01/01 05:54:43;;;;;;;8.30;3.22;;;7.60;99.90;;;;;;5062754;28;20036;-56
2024/01/01 05:57:09;;;;;;;7.85;3.25;;;7.60;99.90;;;;;;5062244;28;20076;-54
2024/01/01 05:59:35;;;;;;;13.07;2.90;;;7.60;99.90;;;;;;5063068;28;20124;-54
2024/01/01 06:02:00;;;;;;;6.63;2.13;;;7.70;99.90;;;;;;5061104;28;20115;-53
2024/01/01 06:04:26;;;;;;;10.63;2.65;;;7.70;99.90;;;;;;5061105;28;20160;-53
2024/01/01 06:06:52;;;;;;;8.02;2.78;;;7.70;99.90;;;;;;5062502;28;20517;-53
2024/01/01 06:09:18;;;;;;;8.18;2.83;;;7.70;99.90;;;;;;5044086;28;20036;-52
2024/01/01 06:11:44;;;;;;;8.45;2.67;;;7.70;99.90;;;;;;5057757;28;20064;-53
2024/01/01 06:14:10;;;;;;;9.70;2.47;;;7.70;99.90;;;;;;5060797;28;20036;-52
2024/01/01 06:16:36;;;;;;;8.23;1.75;;;7.70;99.90;;;;;;5062687;28;20052;-53
2024/01/01 06:19:02;;;;;;;5.35;2.25;;;7.70;99.90;;;;;;5062128;28;20093;-52
2024/01/01 06:21:28;;;;;;;9.05;2.65;;;7.70;99.90;;;;;;5060567;28;20044;-53
2024/01/01 06:23:53;;;;;;;10.63;2.40;;;7.80;99.90;;;;;;5059340;28;20189;-52
2024/01/01 06:26:19;;;;;;;13.07;2.85;;;7.80;99.90;;;;;;5061676;28;20054;-52
2024/01/01 06:28:45;;;;;;;9.65;2.28;;;7.80;99.90;;;;;;5061798;28;20127;-50
2024/01/01 06:31:10;;;;;;;7.85;2.30;;;7.80;99.90;;;;;;5059971;28;20048;-53
2024/01/01 06:33:36;;;;;;;10.13;2.75;;;7.80;99.90;;;;;;5060324;28;20045;-52
2024/01/01 06:36:02;;;;;;;8.07;2.25;;;7.80;99.90;;;;;;5062243;28;20101;-49
2024/01/01 06:38:28;;;;;;;7.47;2.63;;;7.80;99.90;;;;;;5061216;28;20558;-52
2024/01/01 06:40:54;;;;;;;9.77;2.63;;;7.80;99.90;;;;;;5060623;28;20037;-53
2024/01/01 06:43:19;;;;;;;10.75;2.67;;;7.80;99.90;;;;;;5059222;28;20055;-48
2024/01/01 06:45:45;;;;;;;6.25;2.50;;;7.80;99.90;;;;;;5061893;28;20411;-50
2024/01/01 06:48:11;;;;;;;9.45;2.75;;;7.80;99.90;;;;;;5060558;28;20518;-50
2024/01/01 06:50:37;;;;;;;10.50;2.63;;;7.80;99.90;;;;;;5062540;28;20408;-51
2024/01/01 06:53:03;;;;;;;15.25;3.60;;;7.90;99.90;;;;;;5061971;28;20040;-49
2024/01/01 06:55:30;;;;;;;14.93;3.80;;;7.90;99.90;;;;;;5061065;28;20369;-52
2024/01/01 06:57:58;;;;;;;9.57;2.63;;;7.90;99.90;;;;;;5062138;28;20495;-50
2024/01/01 07:00:24;;;;;;;11.23;2.90;;;7.90;99.90;;;;;;5060303;28;20514;-51
2024/01/01 07:02:49;;;;;;;11.13;2.85;;;7.90;99.90;;;;;;5046153;28;20036;-53
2024/01/01 07:05:15;;;;;;;12.15;2.85;;;7.90;99.90;;;;;;5060841;28;20425;-53
2024/01/01 07:07:41;;;;;;;8.98;2.40;;;7.90;99.90;;;;;;5060506;28;20040;-53
2024/01/01 07:10:07;;;;;;;8.85;2.85;;;7.90;99.90;;;;;;5061390;28;20652;-51
2024/01/01 07:12:33;;;;;;;20.35;3.33;;;7.90;99.90;;;;;;5059014;28;20083;-50
2024/01/01 07:15:00;;;;;;;8.88;2.30;;;7.90;99.90;;;;;;5061681;28;20147;-54
2024/01/01 07:17:27;;;;;;;9.30;3.00;;;7.80;99.90;;;;;;5057749;28;20400;-54
2024/01/01 07:19:53;;;;;;;9.65;2.47;;;7.90;99.90;;;;;;5060522;28;20506;-53
2024/01/01 07:22:19;;;;;;;11.88;3.17;;;7.90;99.90;;;;;;5059841;28;20040;-53
2024/01/01 07:24:44;;;;;;;8.45;2.65;;;7.90;99.90;;;;;;5060154;28;20063;-52
2024/01/01 07:27:11;;;;;;;18.17;2.78;;;7.80;99.90;;;;;;5061561;28;20073;-54
2024/01/01 07:29:37;;;;;;;13.43;2.92;;;7.90;99.90;;;;;;5059130;28;20048;-54
2024/01/01 07:32:04;;;;;;;8.73;2.92;;;7.90;99.90;;;;;;5061039;28;20028;-52
2024/01/01 07:34:30;;;;;;;5.55;1.92;;;7.90;99.90;;;;;;5054116;28;20072;-52
2024/01/01 07:36:57;;;;;;;5.10;1.50;;;7.80;99.90;;;;;;5041294;28;20494;-53
2024/01/01 07:39:24;;;;;;;4.90;1.33;;;7.70;99.90;;;;;;5054465;28;20522;-52
2024/01/01 07:41:53;;;;;;;4.22;1.27;;;7.60;99.90;;;;;;5061820;28;20032;-52
2024/01/01 07:44:19;;;;;;;2.72;1.02;;;7.40;99.90;;;;;;5060519;28;20033;-53
2024/01/01 07:46:47;;;;;;;4.03;1.00;;;7.40;99.90;;;;;;5059674;28;20106;-52
2024/01/01 07:49:13;;;;;;;2.30;0.77;;;7.20;99.90;;;;;;5058446;28;20040;-53
2024/01/01 07:51:39;;;;;;;2.20;0.70;;;7.10;99.90;;;;;;5060725;28;20043;-52
2024/01/01 07:54:05;;;;;;;2.28;0.80;;;7.00;99.90;;;;;;5056154;28;20122;-53
2024/01/01 07:56:31;;;;;;;1.25;0.50;;;7.00;99.90;;;;;;5056043;28;20045;-50
2024/01/01 07:58:57;;;;;;;4.60;0.90;;;7.10;99.90;;;;;;5057946;28;20125;-52
2024/01/01 08:01:24;;;;;;;4.43;1.00;;;7.10;99.90;;;;;;5059000;28;20072;-54
2024/01/01 08:03:50;;;;;;;5.25;1.13;;;7.10;99.90;;;;;;5060505;28;20040;-50
2024/01/01 08:06:17;;;;;;;4.32;1.00;;;7.10;99.90;;;;;;5058650;28;20450;-53
2024/01/01 08:08:43;;;;;;;3.45;1.00;;;7.10;99.90;;;;;;5055487;28;20059;-51
2024/01/01 08:11:09;;;;;;;2.13;0.90;;;7.10;99.90;;;;;;5059817;28;20044;-52
2024/01/01 08:13:36;;;;;;;4.15;0.80;;;7.10;99.90;;;;;;5045193;28;20041;-49
2024/01/01 08:16:02;;;;;;;3.38;0.73;;;7.10;99.90;;;;;;5058662;28;20053;-52
2024/01/01 08:18:28;;;;;;;3.58;1.00;;;7.20;99.90;;;;;;5059144;28;20040;-50
2024/01/01 08:20:54;;;;;;;2.83;1.40;;;7.20;99.90;;;;;;5059658;28;20044;-50
2024/01/01 08:23:20;;;;;;;6.75;1.08;;;7.30;99.90;;;;;;5059210;28;20037;-51
2024/01/01 08:25:46;;;;;;;5.28;1.27;;;7.30;99.90;;;;;;5060250;28;20542;-52
2024/01/01 08:28:12;;;;;;;9.10;1.60;;;7.30;99.90;;;;;;5058359;28;20040;-50
2024/01/01 08:30:43;;;;;;;6.97;1.52;;;7.30;99.90;;;;;;5059159;28;20468;-52
2024/01/01 08:33:09;;;;;;;5.70;1.60;;;7.30;99.90;;;;;;5051035;28;20040;-51
2024/01/01 08:35:34;;;;;;;4.47;1.58;;;7.30;99.90;;;;;;5063310;28;20051;-50
2024/01/01 08:38:00;;;;;;;5.88;1.70;;;7.40;99.90;;;;;;5062315;28;20037;-51
2024/01/01 08:40:26;;;;;;;4.07;1.40;;;7.40;99.90;;;;;;5063852;28;20041;-50
2024/01/01 08:42:52;;;;;;;4.07;1.45;;;7.40;99.90;;;;;;5062915;28;20341;-52
2024/01/01 08:45:21;;;;;;;6.60;1.40;;;7.30;99.90;;;;;;5063628;28;20040;-50
2024/01/01 08:47:46;;;;;;;;;;;7.30;99.90;;;;;;5063458;28;20137;-53
2024/01/01 08:50:14;;;;;;;6.68;1.35;;;7.40;99.90;;;;;;5063918;28;19924;-50
2024/01/01 08:52:39;;;;;;;6.60;1.60;;;7.40;99.90;;;;;;5064364;28;20393;-53
2024/01/01 08:55:05;;;;;;;5.82;1.35;;;7.40;99.90;;;;;;5062376;28;20048;-53
2024/01/01 08:57:31;;;;;;;5.35;1.15;;;7.40;99.90;;;;;;5063961;28;20044;-53
2024/01/01 08:59:57;;;;;;;3.78;1.20;;;7.30;99.90;;;;;;5062509;28;20510;-51
2024/01/01 09:02:23;;;;;;;7.70;1.58;;;7.30;99.90;;;;;;5064233;28;20032;-53
2024/01/01 09:04:49;;;;;;;4.30;1.30;;;7.30;99.90;;;;;;5059033;28;20047;-53
2024/01/01 09:07:14;;;;;;;3.67;1.23;;;7.40;99.90;;;;;;5064147;28;20047;-49
2024/01/01 09:09:40;;;;;;;5.30;1.30;;;7.40;99.90;;;;;;5062016;28;20155;-49
2024/01/01 09:12:06;;;;;;;2.72;0.95;;;7.40;99.90;;;;;;5060282;28;20116;-53
2024/01/01 09:14:34;;;;;;;4.13;1.30;;;7.40;99.90;;;;;;5064400;28;20114;-52
2024/01/01 09:17:00;;;;;;;6.95;1.17;;;7.40;99.90;;;;;;5062902;28;20071;-53
2024/01/01 09:19:25;;;;;;;4.00;1.20;;;7.30;99.90;;;;;;5064592;28;20518;-53
2024/01/01 09:21:51;;;;;;;3.92;1.10;;;7.30;99.90;;;;;;5056112;28;20178;-50
2024/01/01 09:24:17;;;;;;;4.03;1.48;;;7.30;99.90;;;;;;5057042;28;20033;-52
2024/01/01 09:26:43;;;;;;;5.40;1.20;;;7.30;99.90;;;;;;5062706;28;20048;-53
2024/01/01 09:29:08;;;;;;;6.40;1.58;;;7.20;99.90;;;;;;5058872;28;20040;-54
2024/01/01 09:31:35;;;;;;;6.45;1.38;;;7.30;99.90;;;;;;5063242;28;20113;-54
2024/01/01 09:34:03;;;;;;;4.97;1.40;;;7.30;99.90;;;;;;5061327;28;20492;-51
2024/01/01 09:36:29;;;;;;;4.22;1.20;;;7.20;99.90;;;;;;5059205;28;20051;-54
2024/01/01 09:38:56;;;;;;;5.22;1.20;;;7.10;99.90;;;;;;5058902;28;20032;-51
2024/01/01 09:41:27;;;;;;;2.92;1.02;;;7.20;99.90;;;;;;5060799;28;20688;-53
2024/01/01 09:43:56;;;;;;;3.55;1.00;;;7.10;99.90;;;;;;5063640;28;20070;-54
2024/01/01 09:46:23;;;;;;;1.92;0.65;;;7.10;99.90;;;;;;5064397;28;20032;-53
2024/01/01 09:48:49;;;;;;;1.90;0.70;;;7.10;99.90;;;;;;5053108;28;20413;-53
2024/01/01 09:51:15;;;;;;;4.10;0.82;;;7.20;99.90;;;;;;5062806;28;20224;-53
2024/01/01 09:53:44;;;;;;;7.47;0.77;;;7.20;99.90;;;;;;5053984;28;20041;-50
2024/01/01 09:56:10;;;;;;;6.45;1.67;;;7.30;99.90;;;;;;5061231;28;20048;-52
2024/01/01 09:58:42;;;;;;;4.97;1.70;;;7.40;99.90;;;;;;5061680;28;20040;-51
2024/01/01 10:01:10;;;;;;;6.75;1.17;;;7.30;99.90;;;;;;5060400;28;20120;-50
2024/01/01 10:03:37;;;;;;;6.30;1.00;;;7.20;99.90;;;;;;5059614;28;20120;-51
2024/01/01 10:06:11;;;;;;;3.38;0.93;;;7.30;99.90;;;;;;5059000;28;20048;-51
2024/01/01 10:08:38;;;;;;;5.47;1.30;;;7.50;99.90;;;;;;5063461;28;20509;-52
2024/01/01 10:11:20;;;;;;;5.55;1.02;;;7.50;99.90;;;;;;5062646;28;20389;-51
2024/01/01 10:13:47;;;;;;;4.68;1.50;;;7.50;99.90;;;;;;5062282;28;20491;-53
2024/01/01 10:16:25;;;;;;;4.70;1.27;;;7.50;99.90;;;;;;5050348;28;20040;-53
2024/01/01 10:19:00;;;;;;;7.22;1.42;;;7.50;99.90;;;;;;5057874;28;20093;-53
2024/01/01 10:21:36;;;;;;;8.15;1.58;;;7.60;99.90;;;;;;5063069;28;20110;-53
2024/01/01 10:24:13;;;;;;;13.57;1.90;;;7.70;99.90;;;;;;5060340;28;20037;-51
2024/01/01 10:26:46;;;;;;;7.97;1.67;;;7.70;99.90;;;;;;5061477;28;20139;-54
2024/01/01 10:29:15;;;;;;;11.32;2.17;;;7.70;99.90;;;;;;5059346;28;20123;-50
2024/01/01 10:31:45;;;;;;;9.95;1.83;;;7.80;99.90;;;;;;5062802;28;20600;-51
2024/01/01 10:34:14;;;;;;;10.25;1.95;;;7.80;99.90;;;;;;5050930;28;20474;-52
2024/01/01 10:36:44;;;;;;;8.77;1.83;;;7.80;99.90;;;;;;5053425;28;20055;-53
2024/01/01 10:39:11;;;;;;;16.70;2.78;;;7.90;99.90;;;;;;5059993;28;20036;-54
2024/01/01 10:41:38;;;;;;;12.98;2.50;;;8.00;99.90;;;;;;5060949;28;20044;-50
2024/01/01 10:44:08;;;;;;;12.23;2.30;;;8.10;99.90;;;;;;5043940;28;20037;-51
2024/01/01 10:46:39;;;;;;;14.82;2.75;;;8.20;99.90;;;;;;5057108;28;20037;-50
2024/01/01 10:49:15;;;;;;;14.77;2.60;;;8.30;99.90;;;;;;5059347;28;20511;-51
2024/01/01 10:52:05;;;;;;;18.05;2.88;;;8.40;99.90;;;;;;5059690;28;20063;-48
2024/01/01 10:55:11;;;;;;;12.32;2.40;;;8.30;99.90;;;;;;5056791;28;20119;-51
2024/01/01 10:58:01;;;;;;;15.90;2.83;;;8.40;99.90;;;;;;5036754;28;20538;-49
2024/01/01 11:00:41;;;;;;;9.15;2.10;;;8.50;99.90;;;;;;5056683;28;20183;-49
2024/01/01 11:03:12;;;;;;;13.95;2.35;;;8.50;99.90;;;;;;5058988;28;20048;-51
2024/01/01 11:05:38;;;;;;;15.52;2.55;;;8.50;99.90;;;;;;5051786;28;20045;-48
2024/01/01 11:08:04;;;;;;;9.80;2.15;;;8.50;99.90;;;;;;5058360;28;20047;-48
2024/01/01 11:10:34;;;;;;;10.32;2.55;;;8.40;99.90;;;;;;5061565;28;20040;-50
2024/01/01 11:13:01;;;;;;;16.00;2.25;;;8.50;99.90;;;;;;5059903;28;20044;-48
2024/01/01 11:15:42;;;;;;;17.42;2.10;;;8.50;99.90;;;;;;5060293;28;20765;-48
2024/01/01 11:18:32;;;;;;;15.38;2.58;;;8.40;99.90;;;;;;5060414;28;20036;-48
2024/01/01 11:21:00;;;;;;;10.15;2.83;;;8.40;99.90;;;;;;5026673;28;20060;-49
2024/01/01 11:23:42;;;;;;;10.88;2.25;;;8.40;99.90;;;;;;5056935;28;20044;-49
2024/01/01 11:26:23;;;;;;;10.82;2.15;;;8.40;99.90;;;;;;5060386;28;20048;-50
2024/01/01 11:29:18;;;;;;;9.70;2.10;;;8.40;99.90;;;;;;5061984;28;20554;-49
2024/01/01 11:31:43;;;;;;;14.25;3.20;;;8.30;99.90;;;;;;5032462;28;20392;-51
2024/01/01 11:34:16;;;;;;;22.60;3.72;;;8.40;99.90;;;;;;5059647;28;20048;-53
2024/01/01 11:36:42;;;;;;;15.05;2.75;;;8.30;99.90;;;;;;5058363;28;20048;-51
2024/01/01 11:39:08;;;;;;;16.48;2.15;;;8.30;99.90;;;;;;5060541;28;20406;-51
2024/01/01 11:41:34;;;;;;;12.48;2.47;;;8.40;99.90;;;;;;5060236;28;20042;-49
2024/01/01 11:44:14;;;;;;;14.27;2.38;;;8.40;99.90;;;;;;5059848;28;20043;-50
2024/01/01 11:46:40;;;;;;;8.15;1.98;;;8.30;99.90;;;;;;5057313;28;20043;-52
2024/01/01 11:49:07;;;;;;;8.07;1.80;;;8.10;99.90;;;;;;5062304;28;20044;-52
2024/01/01 11:51:51;;;;;;;12.18;2.38;;;8.20;99.90;;;;;;5061034;28;20502;-49
2024/01/01 11:54:17;;;;;;;13.93;2.17;;;8.10;99.90;;;;;;5057839;28;20406;-49
2024/01/01 11:56:46;;;;;;;10.65;2.72;;;8.20;99.90;;;;;;5060884;28;20071;-52
2024/01/01 11:59:12;;;;;;;10.98;1.80;;;8.20;99.90;;;;;;5055643;28;20483;-49
2024/01/01 12:01:40;;;;;;;14.63;2.63;;;8.20;99.90;;;;;;5059867;28;20047;-50
2024/01/01 12:04:09;;;;;;;10.88;2.53;;;8.20;99.90;;;;;;5058777;28;20059;-50
2024/01/01 12:06:36;;;;;;;11.60;2.00;;;8.30;99.90;;;;;;5058111;28;20044;-51
2024/01/01 12:09:09;;;;;;;19.90;2.88;;;8.30;99.90;;;;;;5058319;28;20411;-49
2024/01/01 12:11:39;;;;;;;16.60;2.83;;;8.40;99.90;;;;;;5056932;28;20045;-50
2024/01/01 12:14:06;;;;;;;8.13;2.38;;;8.50;99.90;;;;;;5057129;28;20094;-51
2024/01/01 12:16:33;;;;;;;11.32;2.25;;;8.60;99.90;;;;;;5056282;28;20473;-52
2024/01/01 12:19:04;;;;;;;12.52;2.28;;;8.60;99.90;;;;;;5051599;28;20190;-52
2024/01/01 12:21:43;;;;;;;18.65;2.90;;;8.70;99.90;;;;;;5060698;28;20499;-50
2024/01/01 12:24:13;;;;;;;;;;;8.70;99.90;;;;;;5060085;28;20752;-51
2024/01/01 12:26:39;;;;;;;16.83;2.67;;;8.80;99.90;;;;;;5057313;28;20286;-50
2024/01/01 12:29:16;;;;;;;14.20;2.60;;;8.90;99.90;;;;;;5057192;28;20052;-49
2024/01/01 12:31:44;;;;;;;9.27;2.28;;;8.90;99.90;;;;;;5059315;28;20079;-52
2024/01/01 12:34:15;;;;;;;11.38;2.70;;;9.00;99.90;;;;;;5060313;28;20677;-49
2024/01/01 12:36:43;;;;;;;12.82;2.65;;;9.00;99.90;;;;;;5058952;28;20104;-51
2024/01/01 12:39:10;;;;;;;9.38;2.05;;;9.10;99.90;;;;;;5060186;28;20032;-48
2024/01/01 12:41:37;;;;;;;13.55;2.20;;;9.10;99.90;;;;;;5059159;28;20037;-49
2024/01/01 12:44:03;;;;;;;11.95;2.50;;;9.10;99.90;;;;;;5054714;28;20102;-50
2024/01/01 12:46:30;;;;;;;13.02;2.28;;;9.10;99.90;;;;;;5060171;28;20040;-49
2024/01/01 12:48:56;;;;;;;11.63;1.70;;;9.10;99.90;;;;;;5059944;28;20044;-49